Time;durP1;ratioP1;P1;durP2;ratioP2;P2;SDS_P1;SDS_P2;PMS_P1;PMS_P2;Temp;Humidity;BMP_temperature;BMP_pressure;BME280_temperature;BME280_humidity;BME280_pressure;Samples;Min_cycle;Max_cycle;Signal;HPM_P1;HPM_P2
2024/01/17 00:00:50;;;;;;;19.52;8.57;;;;;;;;;;4811832;29;20840;-77
2024/01/17 00:03:16;;;;;;;17.50;8.60;;;;;;;;;;4805804;29;20054;-77
2024/01/17 00:05:43;;;;;;;16.17;8.15;;;;;;;;;;4796558;29;20058;-76
2024/01/17 00:08:10;;;;;;;14.70;7.55;;;;;;;;;;4815488;29;20078;-74
2024/01/17 00:10:36;;;;;;;19.58;8.75;;;;;;;;;;4804396;29;20050;-75
2024/01/17 00:13:03;;;;;;;14.13;8.82;;;;;;;;;;4796949;29;20055;-73
2024/01/17 00:15:30;;;;;;;13.13;7.82;;;;;;;;;;4799715;29;20158;-74
2024/01/17 00:17:57;;;;;;;11.63;7.32;;;;;;;;;;4791478;29;20052;-73
2024/01/17 00:20:23;;;;;;;16.27;8.32;;;;;;;;;;4794070;29;20058;-77
2024/01/17 00:22:50;;;;;;;14.45;8.48;;;;;;;;;;4796987;29;20645;-76
2024/01/17 00:25:16;;;;;;;16.33;7.38;;;;;;;;;;4791879;29;20236;-74
2024/01/17 00:27:43;;;;;;;17.67;8.75;;;;;;;;;;4806273;29;20134;-77
2024/01/17 00:30:10;;;;;;;16.17;7.63;;;;;;;;;;4796104;29;20111;-74
2024/01/17 00:32:37;;;;;;;12.85;7.15;;;;;;;;;;4800487;29;20054;-77
2024/01/17 00:35:03;;;;;;;13.52;7.20;;;;;;;;;;4793183;29;20166;-77
2024/01/17 00:37:30;;;;;;;14.63;7.72;;;;;;;;;;4812894;29;20057;-77
2024/01/17 00:39:56;;;;;;;11.70;6.72;;;;;;;;;;4802209;29;20055;-78
2024/01/17 00:42:23;;;;;;;15.77;7.45;;;;;;;;;;4810527;29;20103;-79
2024/01/17 00:44:50;;;;;;;15.02;7.55;;;;;;;;;;4811841;29;20279;-77
2024/01/17 00:47:16;;;;;;;12.65;7.15;;;;;;;;;;4789071;29;20046;-78
2024/01/17 00:49:43;;;;;;;9.95;6.88;;;;;;;;;;4798549;29;20537;-77
2024/01/17 00:52:09;;;;;;;17.42;7.00;;;;;;;;;;4797223;29;20524;-77
2024/01/17 00:54:36;;;;;;;13.55;6.72;;;;;;;;;;4794100;29;20050;-76
2024/01/17 00:57:03;;;;;;;42.83;8.85;;;;;;;;;;4800977;29;20115;-77
2024/01/17 00:59:30;;;;;;;21.73;8.45;;;;;;;;;;4794232;29;20057;-77
2024/01/17 01:01:56;;;;;;;14.13;7.15;;;;;;;;;;4813918;29;20062;-76
2024/01/17 01:04:26;;;;;;;15.23;7.47;;;;;;;;;;4796542;29;20058;-81
2024/01/17 01:06:53;;;;;;;10.60;6.93;;;;;;;;;;4785307;29;20059;-81
2024/01/17 01:09:20;;;;;;;12.60;6.88;;;;;;;;;;4812940;29;20447;-79
2024/01/17 01:11:46;;;;;;;12.77;7.13;;;;;;;;;;4808953;29;20122;-80
2024/01/17 01:14:13;;;;;;;15.32;7.65;;;;;;;;;;4800620;29;20055;-79
2024/01/17 01:16:40;;;;;;;13.98;7.13;;;;;;;;;;4785939;29;20063;-79
2024/01/17 01:19:07;;;;;;;15.80;7.40;;;;;;;;;;4793408;29;20505;-80
2024/01/17 01:21:34;;;;;;;16.15;6.50;;;;;;;;;;4793771;29;20052;-80
2024/01/17 01:24:00;;;;;;;13.15;7.15;;;;;;;;;;4788444;29;20141;-79
2024/01/17 01:26:27;;;;;;;11.75;6.75;;;;;;;;;;4800264;29;20063;-78
2024/01/17 01:28:53;;;;;;;14.00;6.85;;;;;;;;;;4795443;29;20059;-79
2024/01/17 01:31:20;;;;;;;17.63;7.07;;;;;;;;;;4809279;29;20063;-80
2024/01/17 01:33:48;;;;;;;12.38;7.30;;;;;;;;;;4798309;29;20061;-79
2024/01/17 01:36:15;;;;;;;12.73;7.55;;;;;;;;;;4785659;29;20838;-78
2024/01/17 01:38:42;;;;;;;11.75;6.95;;;;;;;;;;4796689;29;20819;-79
2024/01/17 01:41:08;;;;;;;16.30;7.57;;;;;;;;;;4807084;29;20194;-78
2024/01/17 01:43:35;;;;;;;11.70;6.65;;;;;;;;;;4814510;29;20486;-79
2024/01/17 01:46:01;;;;;;;12.60;6.78;;;;;;;;;;4806243;29;20059;-79
2024/01/17 01:48:28;;;;;;;12.05;6.38;;;;;;;;;;4809338;29;20159;-80
2024/01/17 01:50:54;;;;;;;9.32;6.10;;;;;;;;;;4806940;29;20061;-80
2024/01/17 01:53:21;;;;;;;14.50;5.90;;;;;;;;;;4810257;29;20043;-82
2024/01/17 01:55:48;;;;;;;10.65;6.65;;;;;;;;;;4799899;29;20055;-80
2024/01/17 01:58:15;;;;;;;14.57;7.38;;;;;;;;;;4792303;29;20715;-80
2024/01/17 02:00:41;;;;;;;11.48;6.22;;;;;;;;;;4808009;29;20162;-81
2024/01/17 02:03:08;;;;;;;11.65;6.28;;;;;;;;;;4799151;29;20077;-80
2024/01/17 02:05:34;;;;;;;12.73;7.00;;;;;;;;;;4793675;29;20413;-80
2024/01/17 02:08:01;;;;;;;12.93;6.25;;;;;;;;;;4799081;29;20598;-80
2024/01/17 02:10:28;;;;;;;15.30;6.93;;;;;;;;;;4808426;29;20077;-80
2024/01/17 02:12:55;;;;;;;11.90;6.30;;;;;;;;;;4790550;29;20059;-79
2024/01/17 02:15:21;;;;;;;13.93;6.50;;;;;;;;;;4791515;29;20127;-80
2024/01/17 02:17:47;;;;;;;9.50;6.03;;;;;;;;;;4797105;29;20051;-81
2024/01/17 02:20:14;;;;;;;12.57;6.60;;;;;;;;;;4814142;29;20057;-81
2024/01/17 02:22:41;;;;;;;13.60;6.13;;;;;;;;;;4793209;29;20222;-80
2024/01/17 02:25:07;;;;;;;13.65;6.72;;;;;;;;;;4799430;29;20058;-79
2024/01/17 02:27:33;;;;;;;17.23;6.95;;;;;;;;;;4789382;29;20086;-80
2024/01/17 02:30:00;;;;;;;13.65;6.53;;;;;;;;;;4807734;29;20471;-80
2024/01/17 02:32:28;;;;;;;12.43;6.30;;;;;;;;;;4793772;29;20098;-79
2024/01/17 02:34:55;;;;;;;12.38;6.88;;;;;;;;;;4794473;29;20059;-80
2024/01/17 02:37:21;;;;;;;13.73;6.72;;;;;;;;;;4814822;29;20054;-83
2024/01/17 02:39:48;;;;;;;14.65;6.85;;;;;;;;;;4789992;29;20058;-80
2024/01/17 02:42:14;;;;;;;14.82;7.00;;;;;;;;;;4798349;29;20138;-80
2024/01/17 02:44:41;;;;;;;11.68;6.97;;;;;;;;;;4813617;29;20051;-81
2024/01/17 02:47:07;;;;;;;16.02;7.05;;;;;;;;;;4794341;29;20059;-80
2024/01/17 02:49:34;;;;;;;15.38;7.00;;;;;;;;;;4801048;29;20082;-80
2024/01/17 02:52:00;;;;;;;19.20;7.63;;;;;;;;;;4799150;29;20497;-81
2024/01/17 02:54:27;;;;;;;12.55;7.03;;;;;;;;;;4793179;29;20059;-78
2024/01/17 02:56:54;;;;;;;17.50;7.07;;;;;;;;;;4791531;29;20585;-81
2024/01/17 02:59:20;;;;;;;13.63;7.05;;;;;;;;;;4796246;29;20053;-81
2024/01/17 03:01:46;;;;;;;13.35;6.68;;;;;;;;;;4798042;29;20178;-81
2024/01/17 03:04:13;;;;;;;10.88;6.55;;;;;;;;;;4806412;29;20062;-81
2024/01/17 03:06:39;;;;;;;13.80;6.40;;;;;;;;;;4801844;29;20059;-78
2024/01/17 03:09:06;;;;;;;14.40;6.40;;;;;;;;;;4782931;29;20062;-80
2024/01/17 03:11:32;;;;;;;15.20;6.57;;;;;;;;;;4807161;29;20094;-80
2024/01/17 03:14:00;;;;;;;16.25;6.65;;;;;;;;;;4795550;29;20462;-81
2024/01/17 03:16:27;;;;;;;10.77;7.27;;;;;;;;;;4794315;29;20051;-80
2024/01/17 03:18:53;;;;;;;13.32;6.20;;;;;;;;;;4791934;29;20054;-80
2024/01/17 03:21:20;;;;;;;18.55;6.65;;;;;;;;;;4792537;29;20154;-82
2024/01/17 03:23:46;;;;;;;11.65;6.53;;;;;;;;;;4782609;29;20055;-81
2024/01/17 03:26:13;;;;;;;14.68;6.43;;;;;;;;;;4790134;29;20055;-82
2024/01/17 03:28:39;;;;;;;14.18;7.10;;;;;;;;;;4795501;29;20150;-82
2024/01/17 03:31:06;;;;;;;14.07;6.93;;;;;;;;;;4798148;29;20143;-81
2024/01/17 03:33:33;;;;;;;15.73;6.93;;;;;;;;;;4805742;29;20138;-81
2024/01/17 03:36:00;;;;;;;11.18;6.75;;;;;;;;;;4794685;29;20055;-83
2024/01/17 03:38:27;;;;;;;15.80;6.85;;;;;;;;;;4799830;29;20055;-83
2024/01/17 03:40:56;;;;;;;13.70;6.50;;;;;;;;;;4796905;29;20444;-82
2024/01/17 03:43:22;;;;;;;11.95;6.40;;;;;;;;;;4807731;29;20136;-79
2024/01/17 03:45:49;;;;;;;13.80;6.07;;;;;;;;;;4807660;29;20478;-83
2024/01/17 03:48:15;;;;;;;14.68;6.68;;;;;;;;;;4815835;29;20058;-82
2024/01/17 03:50:42;;;;;;;12.77;6.80;;;;;;;;;;4790817;29;20062;-79
2024/01/17 03:53:09;;;;;;;10.90;6.28;;;;;;;;;;4809911;29;20154;-82
2024/01/17 03:55:35;;;;;;;11.48;6.25;;;;;;;;;;4794991;29;20131;-80
2024/01/17 03:58:02;;;;;;;12.45;6.68;;;;;;;;;;4800211;29;21305;-81
2024/01/17 04:00:29;;;;;;;14.43;7.05;;;;;;;;;;4799114;29;20055;-82
2024/01/17 04:02:55;;;;;;;13.82;6.38;;;;;;;;;;4787197;29;20418;-82
2024/01/17 04:05:22;;;;;;;11.32;6.43;;;;;;;;;;4798016;29;20050;-79
2024/01/17 04:07:49;;;;;;;12.77;6.82;;;;;;;;;;4794261;29;20111;-82
2024/01/17 04:10:16;;;;;;;12.52;5.85;;;;;;;;;;4800650;29;20055;-81
2024/01/17 04:12:42;;;;;;;12.75;6.57;;;;;;;;;;4801113;29;20059;-81
2024/01/17 04:15:09;;;;;;;12.95;6.80;;;;;;;;;;4809225;29;20111;-80
2024/01/17 04:17:35;;;;;;;13.15;6.88;;;;;;;;;;4796554;29;20058;-81
2024/01/17 04:20:03;;;;;;;11.95;6.53;;;;;;;;;;4793824;29;20142;-82
2024/01/17 04:22:31;;;;;;;13.60;5.65;;;;;;;;;;4809228;29;20405;-80
2024/01/17 04:24:58;;;;;;;9.67;6.37;;;;;;;;;;4801431;29;20054;-81
2024/01/17 04:27:24;;;;;;;13.63;6.07;;;;;;;;;;4793508;29;20337;-81
2024/01/17 04:29:50;;;;;;;11.32;6.45;;;;;;;;;;4804610;29;20086;-81
2024/01/17 04:32:17;;;;;;;11.77;6.13;;;;;;;;;;4806541;29;20067;-81
2024/01/17 04:34:44;;;;;;;12.98;6.90;;;;;;;;;;4796876;29;20067;-81
2024/01/17 04:37:11;;;;;;;9.93;5.72;;;;;;;;;;4795079;29;20063;-82
2024/01/17 04:39:38;;;;;;;12.30;6.43;;;;;;;;;;4814403;29;20094;-81
2024/01/17 04:42:05;;;;;;;12.85;6.28;;;;;;;;;;4812492;29;20066;-81
2024/01/17 04:44:32;;;;;;;14.07;6.65;;;;;;;;;;4797149;29;20061;-81
2024/01/17 04:46:59;;;;;;;12.10;6.50;;;;;;;;;;4800599;29;20059;-80
2024/01/17 04:49:27;;;;;;;12.43;7.18;;;;;;;;;;4792437;29;20066;-81
2024/01/17 04:51:54;;;;;;;11.10;6.68;;;;;;;;;;4804099;29;20143;-81
2024/01/17 04:54:22;;;;;;;12.15;7.18;;;;;;;;;;4797418;29;20050;-79
2024/01/17 04:56:49;;;;;;;12.55;7.07;;;;;;;;;;4800762;29;20108;-80
2024/01/17 04:59:15;;;;;;;12.15;6.90;;;;;;;;;;4790602;29;20110;-81
2024/01/17 05:01:42;;;;;;;13.43;7.38;;;;;;;;;;4776295;29;20058;-79
2024/01/17 05:04:09;;;;;;;13.95;7.10;;;;;;;;;;4802860;29;20070;-81
2024/01/17 05:06:35;;;;;;;12.20;7.22;;;;;;;;;;4790766;29;20112;-80
2024/01/17 05:09:07;;;;;;;11.35;7.05;;;;;;;;;;4801921;29;20101;-80
2024/01/17 05:11:33;;;;;;;9.80;6.35;;;;;;;;;;4801432;29;20059;-80
2024/01/17 05:14:00;;;;;;;16.80;7.07;;;;;;;;;;4793891;29;20058;-80
2024/01/17 05:16:26;;;;;;;13.77;8.20;;;;;;;;;;4796003;29;20065;-81
2024/01/17 05:18:53;;;;;;;14.70;7.90;;;;;;;;;;4808817;29;20099;-82
2024/01/17 05:21:20;;;;;;;13.93;7.50;;;;;;;;;;4797670;29;20090;-80
2024/01/17 05:23:46;;;;;;;12.15;7.20;;;;;;;;;;4789154;29;20506;-82
2024/01/17 05:26:13;;;;;;;10.77;7.15;;;;;;;;;;4797654;29;20063;-81
2024/01/17 05:28:39;;;;;;;13.73;8.07;;;;;;;;;;4811823;29;20098;-81
2024/01/17 05:31:06;;;;;;;12.02;7.35;;;;;;;;;;4791532;29;20047;-80
2024/01/17 05:33:32;;;;;;;15.02;7.65;;;;;;;;;;4809097;29;20061;-80
2024/01/17 05:35:59;;;;;;;14.43;8.18;;;;;;;;;;4795692;29;20082;-79
2024/01/17 05:38:25;;;;;;;12.38;8.18;;;;;;;;;;4801223;29;20155;-81
2024/01/17 05:40:52;;;;;;;13.82;7.70;;;;;;;;;;4813788;29;20062;-79
2024/01/17 05:43:19;;;;;;;13.73;8.07;;;;;;;;;;4797924;29;20142;-79
2024/01/17 05:45:45;;;;;;;12.80;7.40;;;;;;;;;;4808773;29;20753;-81
2024/01/17 05:48:12;;;;;;;12.27;7.82;;;;;;;;;;4778564;29;20082;-80
2024/01/17 05:50:38;;;;;;;12.52;7.38;;;;;;;;;;4785736;29;20054;-81
2024/01/17 05:53:05;;;;;;;13.15;7.50;;;;;;;;;;4797095;29;20416;-81
2024/01/17 05:55:32;;;;;;;10.80;7.05;;;;;;;;;;4793007;29;20054;-81
2024/01/17 05:57:59;;;;;;;10.75;6.43;;;;;;;;;;4794476;29;20055;-80
2024/01/17 06:00:25;;;;;;;15.50;7.65;;;;;;;;;;4794122;29;20471;-80
2024/01/17 06:02:52;;;;;;;10.77;6.93;;;;;;;;;;4789038;29;20061;-81
2024/01/17 06:05:18;;;;;;;17.05;7.85;;;;;;;;;;4785415;29;20437;-80
2024/01/17 06:07:45;;;;;;;15.55;7.88;;;;;;;;;;4795069;29;20138;-81
2024/01/17 06:10:13;;;;;;;14.27;7.60;;;;;;;;;;4794365;29;20128;-80
2024/01/17 06:12:40;;;;;;;;;;;;;;;;;;4779896;29;20744;-80
2024/01/17 06:15:07;;;;;;;14.30;7.35;;;;;;;;;;4799599;29;19978;-81
2024/01/17 06:17:34;;;;;;;13.02;7.82;;;;;;;;;;4800148;29;20552;-80
2024/01/17 06:20:01;;;;;;;10.90;6.95;;;;;;;;;;4801803;29;20078;-79
2024/01/17 06:22:27;;;;;;;14.98;7.35;;;;;;;;;;4795131;29;20058;-81
2024/01/17 06:24:54;;;;;;;11.85;7.43;;;;;;;;;;4792646;29;20130;-80
2024/01/17 06:27:22;;;;;;;12.52;7.57;;;;;;;;;;4804648;29;20067;-80
2024/01/17 06:29:48;;;;;;;16.88;7.15;;;;;;;;;;4806569;29;20500;-80
2024/01/17 06:32:15;;;;;;;13.02;7.32;;;;;;;;;;4799618;29;20061;-80
2024/01/17 06:34:43;;;;;;;13.05;7.00;;;;;;;;;;4805288;29;20054;-80
2024/01/17 06:37:09;;;;;;;11.95;6.25;;;;;;;;;;4795629;29;20062;-79
2024/01/17 06:39:36;;;;;;;12.98;7.35;;;;;;;;;;4791106;29;20126;-80
2024/01/17 06:42:03;;;;;;;11.48;7.57;;;;;;;;;;4801108;29;20050;-80
2024/01/17 06:44:29;;;;;;;14.77;7.28;;;;;;;;;;4811876;29;20074;-81
2024/01/17 06:46:57;;;;;;;11.48;6.75;;;;;;;;;;4776295;29;20478;-80
2024/01/17 06:49:24;;;;;;;16.00;7.22;;;;;;;;;;4808729;29;20058;-80
2024/01/17 06:51:50;;;;;;;11.05;7.30;;;;;;;;;;4783602;29;20139;-79
2024/01/17 06:54:17;;;;;;;12.63;7.03;;;;;;;;;;4802923;29;20066;-80
2024/01/17 06:56:44;;;;;;;13.00;6.68;;;;;;;;;;4809985;29;20055;-79
2024/01/17 06:59:11;;;;;;;11.57;6.30;;;;;;;;;;4791206;29;20671;-80
2024/01/17 07:01:38;;;;;;;12.70;6.72;;;;;;;;;;4813401;29;20145;-80
2024/01/17 07:04:04;;;;;;;13.02;7.32;;;;;;;;;;4793006;29;20135;-80
2024/01/17 07:06:31;;;;;;;12.93;6.43;;;;;;;;;;4753622;29;1273927;-79
2024/01/17 07:08:59;;;;;;;11.32;6.55;;;;;;;;;;4785794;29;20127;-80
2024/01/17 07:11:25;;;;;;;10.68;6.22;;;;;;;;;;4795468;29;20062;-80
2024/01/17 07:13:52;;;;;;;12.52;6.10;;;;;;;;;;4810002;29;20051;-80
2024/01/17 07:16:18;;;;;;;8.95;5.95;;;;;;;;;;4807285;29;20108;-81
2024/01/17 07:18:45;;;;;;;11.63;6.32;;;;;;;;;;4812346;29;20147;-80
2024/01/17 07:21:11;;;;;;;12.32;6.63;;;;;;;;;;4794558;29;20055;-79
2024/01/17 07:23:39;;;;;;;13.05;6.05;;;;;;;;;;4799506;29;20058;-80
2024/01/17 07:26:05;;;;;;;15.63;6.57;;;;;;;;;;4816913;29;20085;-80
2024/01/17 07:28:32;;;;;;;11.40;7.78;;;;;;;;;;4797807;29;20127;-78
2024/01/17 07:30:59;;;;;;;9.55;5.68;;;;;;;;;;4803630;29;20046;-80
2024/01/17 07:33:25;;;;;;;10.02;6.20;;;;;;;;;;4791761;29;20055;-78
2024/01/17 07:35:52;;;;;;;13.23;6.05;;;;;;;;;;4785242;29;20085;-78
2024/01/17 07:38:19;;;;;;;10.25;5.30;;;;;;;;;;4796792;29;20051;-80
2024/01/17 07:40:46;;;;;;;12.65;6.35;;;;;;;;;;4796080;29;20412;-78
2024/01/17 07:43:12;;;;;;;10.23;5.40;;;;;;;;;;4805219;29;20118;-79
2024/01/17 07:45:38;;;;;;;10.55;5.93;;;;;;;;;;4791635;29;20123;-79
2024/01/17 07:48:05;;;;;;;12.77;6.35;;;;;;;;;;4787244;29;20090;-79
2024/01/17 07:50:31;;;;;;;15.15;5.93;;;;;;;;;;4793835;29;20100;-79
2024/01/17 07:52:58;;;;;;;11.65;6.40;;;;;;;;;;4801142;29;20051;-79
2024/01/17 07:55:24;;;;;;;12.88;6.75;;;;;;;;;;4801942;29;20063;-79
2024/01/17 07:57:52;;;;;;;9.40;6.35;;;;;;;;;;4809694;29;20750;-79
2024/01/17 08:00:18;;;;;;;12.95;6.88;;;;;;;;;;4799879;29;20051;-78
2024/01/17 08:02:45;;;;;;;13.55;7.05;;;;;;;;;;4806705;29;20192;-79
2024/01/17 08:05:12;;;;;;;14.40;6.03;;;;;;;;;;4798571;29;20094;-79
2024/01/17 08:07:38;;;;;;;12.13;7.00;;;;;;;;;;4816649;29;20048;-79
2024/01/17 08:10:06;;;;;;;12.38;6.68;;;;;;;;;;4796085;29;20055;-79
2024/01/17 08:12:34;;;;;;;12.25;7.10;;;;;;;;;;4800225;29;20073;-79
2024/01/17 08:15:01;;;;;;;11.52;6.30;;;;;;;;;;4810225;29;20047;-78
2024/01/17 08:17:28;;;;;;;13.35;7.05;;;;;;;;;;4809753;29;20099;-79
2024/01/17 08:19:58;;;;;;;;;;;;;;;;;;4794939;29;20134;-78
2024/01/17 08:22:24;;;;;;;13.57;6.15;;;;;;;;;;4801492;29;20378;-80
2024/01/17 08:24:51;;;;;;;13.38;6.78;;;;;;;;;;4797215;29;20055;-79
2024/01/17 08:27:17;;;;;;;13.25;6.53;;;;;;;;;;4788523;29;20490;-78
2024/01/17 08:29:45;;;;;;;12.02;6.63;;;;;;;;;;4801764;29;20057;-78
2024/01/17 08:32:11;;;;;;;13.55;7.13;;;;;;;;;;4779516;29;20496;-78
2024/01/17 08:34:38;;;;;;;11.70;6.80;;;;;;;;;;4803286;29;20456;-78
2024/01/17 08:37:04;;;;;;;10.38;6.82;;;;;;;;;;4790075;29;20051;-79
2024/01/17 08:39:31;;;;;;;13.65;7.18;;;;;;;;;;4812105;29;20061;-79
2024/01/17 08:41:57;;;;;;;11.50;6.68;;;;;;;;;;4820701;29;20144;-78
2024/01/17 08:44:25;;;;;;;11.98;6.88;;;;;;;;;;4810122;29;20050;-78
2024/01/17 08:46:52;;;;;;;12.68;7.57;;;;;;;;;;4809024;29;20130;-78
2024/01/17 08:49:20;;;;;;;12.48;7.28;;;;;;;;;;4818859;29;20082;-78
2024/01/17 08:51:46;;;;;;;10.43;6.93;;;;;;;;;;4811773;29;20059;-78
2024/01/17 08:54:13;;;;;;;12.73;7.43;;;;;;;;;;4802339;29;20082;-78
2024/01/17 08:56:40;;;;;;;14.52;7.82;;;;;;;;;;4797103;29;20051;-79
2024/01/17 08:59:06;;;;;;;14.93;7.50;;;;;;;;;;4793255;29;20075;-79
2024/01/17 09:01:32;;;;;;;14.90;7.30;;;;;;;;;;4792030;29;20050;-78
2024/01/17 09:03:59;;;;;;;16.05;7.95;;;;;;;;;;4799592;29;20057;-80
2024/01/17 09:06:25;;;;;;;14.43;7.55;;;;;;;;;;4801107;29;20123;-78
2024/01/17 09:08:52;;;;;;;16.75;7.90;;;;;;;;;;4792285;29;20074;-79
2024/01/17 09:11:19;;;;;;;13.82;8.32;;;;;;;;;;4797132;29;20542;-79
2024/01/17 09:13:46;;;;;;;15.40;7.63;;;;;;;;;;4790699;29;20615;-79
2024/01/17 09:16:12;;;;;;;12.13;7.55;;;;;;;;;;4797855;29;20059;-78
2024/01/17 09:18:39;;;;;;;16.55;7.93;;;;;;;;;;4794098;29;20055;-80
2024/01/17 09:21:05;;;;;;;17.73;8.10;;;;;;;;;;4797842;29;20047;-79
2024/01/17 09:23:32;;;;;;;16.92;8.40;;;;;;;;;;4797834;29;20066;-78
2024/01/17 09:25:59;;;;;;;17.98;8.25;;;;;;;;;;4804947;29;20536;-79
2024/01/17 09:28:30;;;;;;;12.63;7.90;;;;;;;;;;4798250;29;20051;-80
2024/01/17 09:30:56;;;;;;;14.43;7.90;;;;;;;;;;4808439;29;20054;-77
2024/01/17 09:33:23;;;;;;;15.68;8.32;;;;;;;;;;4800490;29;20058;-79
2024/01/17 09:35:52;;;;;;;13.60;7.63;;;;;;;;;;4797509;29;20070;-78
2024/01/17 09:38:28;;;;;;;15.45;7.97;;;;;;;;;;4792078;29;21300;-78
2024/01/17 09:40:55;;;;;;;13.23;7.03;;;;;;;;;;4795459;29;20061;-78
2024/01/17 09:43:22;;;;;;;14.63;8.05;;;;;;;;;;4798959;29;20051;-82
2024/01/17 09:45:48;;;;;;;12.80;7.90;;;;;;;;;;4799793;29;20079;-80
2024/01/17 09:48:15;;;;;;;13.30;7.40;;;;;;;;;;4795478;29;20070;-80
2024/01/17 09:50:43;;;;;;;13.50;7.90;;;;;;;;;;4812776;29;20070;-80
2024/01/17 09:53:13;;;;;;;15.25;7.97;;;;;;;;;;4814772;29;20393;-80
2024/01/17 09:55:40;;;;;;;13.82;8.00;;;;;;;;;;4789997;29;20508;-79
2024/01/17 09:58:09;;;;;;;12.33;7.53;;;;;;;;;;4805761;29;20047;-81
2024/01/17 10:00:36;;;;;;;12.85;7.13;;;;;;;;;;4803149;29;20295;-79
2024/01/17 10:03:02;;;;;;;13.60;7.60;;;;;;;;;;4810992;29;20101;-79
2024/01/17 10:05:32;;;;;;;14.55;7.45;;;;;;;;;;4791440;29;20054;-78
2024/01/17 10:08:02;;;;;;;12.98;7.70;;;;;;;;;;4801325;29;20062;-79
2024/01/17 10:10:29;;;;;;;12.10;7.50;;;;;;;;;;4807226;29;20066;-78
2024/01/17 10:12:56;;;;;;;12.45;8.07;;;;;;;;;;4794592;29;20092;-81
2024/01/17 10:15:25;;;;;;;14.88;8.25;;;;;;;;;;4797819;29;20059;-80
2024/01/17 10:17:52;;;;;;;15.77;8.23;;;;;;;;;;4808061;29;20055;-80
2024/01/17 10:20:21;;;;;;;12.57;8.30;;;;;;;;;;4799866;29;20055;-80
2024/01/17 10:22:47;;;;;;;12.15;7.90;;;;;;;;;;4808430;29;20062;-79
2024/01/17 10:25:16;;;;;;;15.48;8.95;;;;;;;;;;4788772;29;20050;-79
2024/01/17 10:27:46;;;;;;;12.63;7.38;;;;;;;;;;4799978;29;20065;-79
2024/01/17 10:30:13;;;;;;;13.65;8.52;;;;;;;;;;4806757;29;20055;-78
2024/01/17 10:32:41;;;;;;;16.73;8.77;;;;;;;;;;4813371;29;20471;-76
2024/01/17 10:35:08;;;;;;;17.25;9.20;;;;;;;;;;4791897;29;20120;-75
2024/01/17 10:37:35;;;;;;;15.68;7.68;;;;;;;;;;4795950;29;20051;-78
2024/01/17 10:40:11;;;;;;;18.50;8.13;;;;;;;;;;4790309;29;20059;-77
2024/01/17 10:42:40;;;;;;;14.65;8.27;;;;;;;;;;4814291;29;20419;-76
2024/01/17 10:45:17;;;;;;;14.45;7.47;;;;;;;;;;4809865;29;20127;-79
2024/01/17 10:47:44;;;;;;;17.27;8.00;;;;;;;;;;4780579;29;20524;-79
2024/01/17 10:50:11;;;;;;;13.75;8.18;;;;;;;;;;4786123;29;20140;-79
2024/01/17 10:52:40;;;;;;;15.23;8.55;;;;;;;;;;4790239;29;20141;-79
2024/01/17 10:55:08;;;;;;;16.73;8.60;;;;;;;;;;4797171;29;20756;-80
2024/01/17 10:57:37;;;;;;;14.18;8.10;;;;;;;;;;4799843;29;20051;-79
2024/01/17 11:00:03;;;;;;;;;;;;;;;;;;4792116;29;20063;-80
2024/01/17 11:02:31;;;;;;;14.05;8.20;;;;;;;;;;4781938;29;20020;-78
2024/01/17 11:04:57;;;;;;;17.25;9.35;;;;;;;;;;4789582;29;20111;-79
2024/01/17 11:07:24;;;;;;;17.17;8.57;;;;;;;;;;4788290;29;20424;-79
2024/01/17 11:09:51;;;;;;;15.25;8.82;;;;;;;;;;4808506;29;20125;-79
2024/01/17 11:12:21;;;;;;;16.10;9.38;;;;;;;;;;4793379;29;20062;-78
2024/01/17 11:14:49;;;;;;;16.38;9.20;;;;;;;;;;4798224;29;20050;-77
2024/01/17 11:17:16;;;;;;;13.50;8.32;;;;;;;;;;4792392;29;20059;-78
2024/01/17 11:19:57;;;;;;;17.05;8.85;;;;;;;;;;4796093;29;20192;-77
2024/01/17 11:22:23;;;;;;;19.75;8.70;;;;;;;;;;4796829;29;20756;-78
2024/01/17 11:25:07;;;;;;;18.02;8.77;;;;;;;;;;4788520;29;20764;-76
2024/01/17 11:27:34;;;;;;;15.02;8.80;;;;;;;;;;4799421;29;20464;-75
2024/01/17 11:30:07;;;;;;;16.70;7.97;;;;;;;;;;4809973;29;20436;-77
2024/01/17 11:32:54;;;;;;;18.58;8.90;;;;;;;;;;4798993;29;20054;-77
2024/01/17 11:35:41;;;;;;;17.08;8.57;;;;;;;;;;4809646;29;20059;-77
2024/01/17 11:38:12;;;;;;;14.38;8.68;;;;;;;;;;4803020;29;20055;-78
2024/01/17 11:40:39;;;;;;;14.65;8.57;;;;;;;;;;4797469;29;20090;-78
2024/01/17 11:43:06;;;;;;;15.48;9.02;;;;;;;;;;4826305;29;20401;-78
2024/01/17 11:45:33;;;;;;;14.13;8.35;;;;;;;;;;4798945;29;20047;-77
2024/01/17 11:48:10;;;;;;;16.50;8.52;;;;;;;;;;4792123;29;20065;-78
2024/01/17 11:50:38;;;;;;;14.23;8.80;;;;;;;;;;4802034;29;20058;-78
2024/01/17 11:53:05;;;;;;;15.10;8.10;;;;;;;;;;4813438;29;20363;-78
2024/01/17 11:55:33;;;;;;;;;;;;;;;;;;4803664;29;20412;-73
2024/01/17 11:58:00;;;;;;;15.73;9.20;;;;;;;;;;4793803;29;20411;-77
2024/01/17 12:00:27;;;;;;;16.60;9.18;;;;;;;;;;4795179;29;20059;-78
2024/01/17 12:02:59;;;;;;;16.50;8.88;;;;;;;;;;4807177;29;20124;-78
2024/01/17 12:05:26;;;;;;;14.80;8.98;;;;;;;;;;4807466;29;20054;-80
2024/01/17 12:07:53;;;;;;;16.90;9.70;;;;;;;;;;4801770;29;20059;-80
2024/01/17 12:10:20;;;;;;;11.90;7.72;;;;;;;;;;4796161;29;20046;-79
2024/01/17 12:12:47;;;;;;;15.07;8.85;;;;;;;;;;4801042;29;20047;-76
2024/01/17 12:15:13;;;;;;;16.02;9.50;;;;;;;;;;4806793;29;20695;-77
2024/01/17 12:17:44;;;;;;;16.40;8.80;;;;;;;;;;4812277;29;20145;-77
2024/01/17 12:20:11;;;;;;;18.40;8.95;;;;;;;;;;4802070;29;20059;-77
2024/01/17 12:22:38;;;;;;;14.63;8.90;;;;;;;;;;4796389;29;20516;-78
2024/01/17 12:25:05;;;;;;;16.25;9.30;;;;;;;;;;4815430;29;20051;-74
2024/01/17 12:27:32;;;;;;;16.08;9.48;;;;;;;;;;4794431;29;20050;-75
2024/01/17 12:30:07;;;;;;;17.63;9.23;;;;;;;;;;4796294;29;20063;-74
2024/01/17 12:32:34;;;;;;;20.42;9.10;;;;;;;;;;4801482;29;20141;-76
2024/01/17 12:35:02;;;;;;;20.40;10.13;;;;;;;;;;4796861;29;20507;-79
2024/01/17 12:37:29;;;;;;;19.77;10.73;;;;;;;;;;4802416;29;20078;-77
2024/01/17 12:39:55;;;;;;;22.13;10.15;;;;;;;;;;4795681;29;20054;-77
2024/01/17 12:42:22;;;;;;;19.92;9.60;;;;;;;;;;4822707;29;20145;-78
2024/01/17 12:44:49;;;;;;;14.63;8.35;;;;;;;;;;4791289;29;20591;-76
2024/01/17 12:47:15;;;;;;;15.73;8.70;;;;;;;;;;4794617;29;20100;-81
2024/01/17 12:49:44;;;;;;;19.90;10.30;;;;;;;;;;4801748;29;20137;-79
2024/01/17 12:52:11;;;;;;;16.67;9.50;;;;;;;;;;4809426;29;20067;-77
2024/01/17 12:54:37;;;;;;;16.90;9.75;;;;;;;;;;4816115;29;20397;-78
2024/01/17 12:57:04;;;;;;;20.33;10.55;;;;;;;;;;4796129;29;20057;-76
2024/01/17 12:59:32;;;;;;;17.02;9.90;;;;;;;;;;4796787;29;20053;-79
2024/01/17 13:01:58;;;;;;;17.27;9.57;;;;;;;;;;4812399;29;20054;-77
2024/01/17 13:04:25;;;;;;;20.00;11.00;;;;;;;;;;4804920;29;20431;-76
2024/01/17 13:06:57;;;;;;;22.02;11.52;;;;;;;;;;4796440;29;20709;-75
2024/01/17 13:09:28;;;;;;;20.05;10.65;;;;;;;;;;4798789;29;20053;-76
2024/01/17 13:11:55;;;;;;;17.60;11.30;;;;;;;;;;4797578;29;20093;-74
2024/01/17 13:14:22;;;;;;;17.83;11.43;;;;;;;;;;4806864;29;20133;-75
2024/01/17 13:16:49;;;;;;;18.75;11.40;;;;;;;;;;4802393;29;20447;-75
2024/01/17 13:19:19;;;;;;;19.92;11.52;;;;;;;;;;4807575;29;20043;-74
2024/01/17 13:21:49;;;;;;;20.05;10.52;;;;;;;;;;4804099;29;20098;-74
2024/01/17 13:24:16;;;;;;;18.58;10.60;;;;;;;;;;4804928;29;20903;-75
2024/01/17 13:26:43;;;;;;;17.55;11.43;;;;;;;;;;4791841;29;20046;-78
2024/01/17 13:29:12;;;;;;;22.85;11.32;;;;;;;;;;4789038;29;20709;-76
2024/01/17 13:31:40;;;;;;;20.90;12.05;;;;;;;;;;4815990;29;20079;-77
2024/01/17 13:34:11;;;;;;;18.20;10.65;;;;;;;;;;4818357;29;20150;-81
2024/01/17 13:36:38;;;;;;;21.90;11.40;;;;;;;;;;4806614;29;20065;-79
2024/01/17 13:39:05;;;;;;;16.77;10.43;;;;;;;;;;4812767;29;20067;-83
2024/01/17 13:41:34;;;;;;;18.23;10.88;;;;;;;;;;4807147;29;20054;-81
2024/01/17 13:44:00;;;;;;;19.00;10.30;;;;;;;;;;4807389;29;20059;-78
2024/01/17 13:46:27;;;;;;;19.45;11.15;;;;;;;;;;4821667;29;20050;-81
2024/01/17 13:48:54;;;;;;;16.65;9.60;;;;;;;;;;4806625;29;20062;-78
2024/01/17 13:51:24;;;;;;;16.40;9.00;;;;;;;;;;4806199;29;20071;-81
2024/01/17 13:53:53;;;;;;;20.17;10.50;;;;;;;;;;4802969;29;20149;-80
2024/01/17 13:56:21;;;;;;;16.95;10.43;;;;;;;;;;4795274;29;20063;-76
2024/01/17 13:58:47;;;;;;;17.77;11.18;;;;;;;;;;4800491;29;20073;-75
2024/01/17 14:01:18;;;;;;;18.38;10.52;;;;;;;;;;4801731;29;20094;-75
2024/01/17 14:03:47;;;;;;;21.50;10.23;;;;;;;;;;4795509;29;20058;-76
2024/01/17 14:06:14;;;;;;;13.43;8.65;;;;;;;;;;4798518;29;20074;-74
2024/01/17 14:08:41;;;;;;;18.10;10.82;;;;;;;;;;4791554;29;20050;-73
2024/01/17 14:11:12;;;;;;;19.95;10.55;;;;;;;;;;4805483;29;20058;-73
2024/01/17 14:13:40;;;;;;;16.17;10.93;;;;;;;;;;4794529;29;20065;-74
2024/01/17 14:16:06;;;;;;;16.65;9.95;;;;;;;;;;4800737;29;20614;-74
2024/01/17 14:18:33;;;;;;;19.13;10.60;;;;;;;;;;4812939;29;20054;-73
2024/01/17 14:21:00;;;;;;;18.30;11.27;;;;;;;;;;4790222;29;20094;-78
2024/01/17 14:23:27;;;;;;;20.85;12.15;;;;;;;;;;4794844;29;20063;-75
2024/01/17 14:25:53;;;;;;;20.70;11.75;;;;;;;;;;4794522;29;20082;-72
2024/01/17 14:28:20;;;;;;;18.50;10.93;;;;;;;;;;4799703;29;20431;-72
2024/01/17 14:30:47;;;;;;;22.10;10.68;;;;;;;;;;4793872;29;20152;-74